createdAt,value
2018-04-06T00:02:13.333Z,98511.02
2018-04-06T00:04:41.063Z,98507.13
2018-04-06T00:07:08.642Z,98509.50
2018-04-06T00:09:36.194Z,98518.73
2018-04-06T00:12:03.893Z,98511.95
2018-04-06T00:14:31.725Z,98509.13
2018-04-06T00:16:59.443Z,98515.59
2018-04-06T00:19:27.018Z,98509.02
2018-04-06T00:21:54.588Z,98510.09
2018-04-06T00:24:22.396Z,98509.60
2018-04-06T00:26:50.114Z,98508.94
2018-04-06T00:29:17.935Z,98507.51
2018-04-06T00:31:45.498Z,98513.72
2018-04-06T00:34:13.047Z,98514.30
2018-04-06T00:36:40.627Z,98512.99
2018-04-06T00:39:08.186Z,98505.23
2018-04-06T00:41:35.792Z,98502.71
2018-04-06T00:44:03.540Z,98506.56
2018-04-06T00:46:31.153Z,98504.69
2018-04-06T00:48:58.876Z,98503.41
2018-04-06T00:51:26.439Z,98506.23
2018-04-06T00:53:54.023Z,98503.96
2018-04-06T00:56:21.581Z,98507.06
2018-04-06T00:58:49.348Z,98502.80
2018-04-06T01:01:17.166Z,98505.70
2018-04-06T01:03:44.989Z,98491.57
2018-04-06T01:06:12.576Z,98495.91
2018-04-06T01:08:40.321Z,98494.19
2018-04-06T01:11:07.934Z,98494.27
2018-04-06T01:13:35.498Z,98497.36
2018-04-06T01:16:03.062Z,98509.95
2018-04-06T01:18:30.638Z,98503.39
2018-04-06T01:20:58.302Z,98505.78
2018-04-06T01:23:25.939Z,98508.94
2018-04-06T01:25:53.521Z,98509.19
2018-04-06T01:28:21.265Z,98510.28
2018-04-06T01:30:48.930Z,98511.81
2018-04-06T01:33:16.505Z,98510.99
2018-04-06T01:35:44.321Z,98512.79
2018-04-06T01:38:12.812Z,98520.30
2018-04-06T01:40:40.625Z,98521.56
2018-04-06T01:43:08.189Z,98535.22
2018-04-06T01:45:35.742Z,98539.47
2018-04-06T01:48:03.334Z,98546.75
2018-04-06T01:50:30.915Z,98546.83
2018-04-06T01:52:58.536Z,98539.76
2018-04-06T01:55:26.269Z,98549.30
2018-04-06T01:57:53.987Z,98549.39
2018-04-06T02:00:21.804Z,98553.45
2018-04-06T02:02:49.351Z,98554.88
2018-04-06T02:05:17.140Z,98558.29
2018-04-06T02:07:44.737Z,98564.59
2018-04-06T02:10:12.305Z,98565.39
2018-04-06T02:12:39.879Z,98563.05
2018-04-06T02:15:07.466Z,98570.78
2018-04-06T02:17:35.034Z,98573.98
2018-04-06T02:20:02.846Z,98578.45
2018-04-06T02:22:30.557Z,98575.06
2018-04-06T02:24:58.284Z,98579.81
2018-04-06T02:27:25.842Z,98581.92
2018-04-06T02:29:53.619Z,98574.97
2018-04-06T02:32:21.401Z,98575.33
2018-04-06T02:34:49.143Z,98577.84
2018-04-06T02:37:16.710Z,98573.86
2018-04-06T02:39:44.332Z,98574.25
2018-04-06T02:42:11.891Z,98577.77
2018-04-06T02:44:39.447Z,98583.72
2018-04-06T02:47:07.259Z,98584.84
2018-04-06T02:49:34.822Z,98588.45
2018-04-06T02:52:02.462Z,98587.22
2018-04-06T02:54:30.203Z,98594.72
2018-04-06T02:56:57.840Z,98594.66
2018-04-06T02:59:25.398Z,98609.09
2018-04-06T03:01:52.951Z,98606.22
2018-04-06T03:04:20.521Z,98607.64
2018-04-06T03:06:48.089Z,98606.11
2018-04-06T03:09:15.733Z,98615.02
2018-04-06T03:11:43.280Z,98611.12
2018-04-06T03:14:10.898Z,98610.40
2018-04-06T03:16:38.624Z,98607.03
2018-04-06T03:19:06.183Z,98609.98
2018-04-06T03:21:33.999Z,98620.75
2018-04-06T03:24:01.565Z,98625.84
2018-04-06T03:26:29.130Z,98633.88
2018-04-06T03:28:56.689Z,98634.74
2018-04-06T03:31:24.295Z,98631.69
2018-04-06T03:33:52.088Z,98634.84
2018-04-06T03:36:19.657Z,98640.31
2018-04-06T03:38:47.217Z,98637.73
2018-04-06T03:41:14.782Z,98640.95
2018-04-06T03:43:42.463Z,98641.20
2018-04-06T03:46:10.014Z,98643.84
2018-04-06T03:48:37.647Z,98653.89
2018-04-06T03:51:05.274Z,98648.09
2018-04-06T03:53:33.031Z,98657.49
2018-04-06T03:56:00.595Z,98666.47
2018-04-06T03:58:28.372Z,98668.73
2018-04-06T04:00:55.955Z,98672.21
2018-04-06T04:03:23.666Z,98671.95
2018-04-06T04:05:51.525Z,98673.42
2018-04-06T04:08:19.242Z,98682.87
2018-04-06T04:10:46.805Z,98682.40
2018-04-06T04:13:14.375Z,98680.62
2018-04-06T04:15:42.093Z,98683.48
2018-04-06T04:18:09.662Z,98687.14
2018-04-06T04:20:37.407Z,98688.03
2018-04-06T04:23:05.013Z,98690.73
2018-04-06T04:25:32.573Z,98690.55
2018-04-06T04:28:00.394Z,98684.50
2018-04-06T04:30:27.971Z,98683.41
2018-04-06T04:32:55.690Z,98683.41
2018-04-06T04:35:23.406Z,98682.94
2018-04-06T04:37:50.962Z,98678.92
2018-04-06T04:40:18.581Z,98675.07
2018-04-06T04:42:46.146Z,98673.25
2018-04-06T04:45:13.709Z,98665.67
2018-04-06T04:47:41.319Z,98665.62
2018-04-06T04:50:08.881Z,98665.97
2018-04-06T04:52:36.663Z,98670.48
2018-04-06T04:55:04.485Z,98666.45
2018-04-06T04:57:32.109Z,98671.41
2018-04-06T04:59:59.675Z,98666.31
2018-04-06T05:02:27.248Z,98664.94
2018-04-06T05:04:55.068Z,98667.52
2018-04-06T05:07:22.622Z,98663.98
2018-04-06T05:09:50.192Z,98666.21
2018-04-06T05:12:17.749Z,98661.63
2018-04-06T05:14:45.530Z,98658.86
2018-04-06T05:17:13.258Z,98648.94
2018-04-06T05:19:41.064Z,98655.50
2018-04-06T05:22:08.670Z,98653.55
2018-04-06T05:24:36.436Z,98655.69
2018-04-06T05:27:04.279Z,98660.43
2018-04-06T05:29:31.996Z,98664.05
2018-04-06T05:31:59.713Z,98667.30
2018-04-06T05:34:27.290Z,98670.73
2018-04-06T05:36:54.852Z,98676.16
2018-04-06T05:39:22.432Z,98697.27
2018-04-06T05:41:49.994Z,98700.99
2018-04-06T05:44:17.632Z,98700.66
2018-04-06T05:46:45.362Z,98706.27
2018-04-06T05:49:13.073Z,98710.69
2018-04-06T05:51:40.901Z,98707.69
2018-04-06T05:54:08.462Z,98703.42
2018-04-06T05:56:36.038Z,98706.42
2018-04-06T05:59:03.646Z,98704.47
2018-04-06T06:01:31.417Z,98704.20
2018-04-06T06:03:59.153Z,98700.09
2018-04-06T06:06:26.714Z,98706.39
2018-04-06T06:08:54.425Z,98708.84
2018-04-06T06:11:22.243Z,98712.41
2018-04-06T06:13:49.817Z,98716.29
2018-04-06T06:16:17.378Z,98714.46
2018-04-06T06:18:45.154Z,98707.02
2018-04-06T06:21:13.016Z,98709.81
2018-04-06T06:23:40.578Z,98716.16
2018-04-06T06:26:08.329Z,98709.50
2018-04-06T06:28:36.047Z,98714.33
2018-04-06T06:31:03.888Z,98715.03
2018-04-06T06:33:31.442Z,98716.23
2018-04-06T06:35:59.074Z,98722.45
2018-04-06T06:38:26.843Z,98717.01
2018-04-06T06:40:54.402Z,98720.84
2018-04-06T06:43:21.978Z,98718.56
2018-04-06T06:45:49.556Z,98718.92
2018-04-06T06:48:17.134Z,98720.89
2018-04-06T06:50:44.693Z,98727.18
2018-04-06T06:53:12.439Z,98729.22
2018-04-06T06:55:40.067Z,98720.80
2018-04-06T06:58:07.635Z,98722.33
2018-04-06T07:00:35.404Z,98725.85
2018-04-06T07:03:02.980Z,98731.25
2018-04-06T07:05:30.727Z,98731.31
2018-04-06T07:07:58.458Z,98729.51
2018-04-06T07:10:26.090Z,98733.73
2018-04-06T07:12:53.652Z,98747.02
2018-04-06T07:15:21.210Z,98749.39
2018-04-06T07:17:48.782Z,98746.22
2018-04-06T07:20:16.548Z,98751.75
2018-04-06T07:22:44.151Z,98746.58
2018-04-06T07:25:11.692Z,98753.78
2018-04-06T07:27:39.294Z,98744.76
2018-04-06T07:30:06.854Z,98746.51
2018-04-06T07:32:34.408Z,98751.13
2018-04-06T07:35:02.073Z,98758.53
2018-04-06T07:37:29.873Z,98749.16
2018-04-06T07:39:57.692Z,98753.13
2018-04-06T07:42:25.254Z,98756.72
2018-04-06T07:44:52.866Z,98748.07
2018-04-06T07:47:20.430Z,98751.26
2018-04-06T07:49:48.006Z,98750.30
2018-04-06T07:52:15.782Z,98748.56
2018-04-06T07:54:43.350Z,98745.86
2018-04-06T07:57:11.096Z,98744.37
2018-04-06T07:59:38.658Z,98746.06
2018-04-06T08:02:06.325Z,98743.60
2018-04-06T08:04:33.885Z,98744.25
2018-04-06T08:07:01.449Z,98742.23
2018-04-06T08:09:29.182Z,98732.58
2018-04-06T08:11:56.896Z,98741.26
2018-04-06T08:14:24.613Z,98741.89
2018-04-06T08:16:52.181Z,98746.27
2018-04-06T08:19:19.923Z,98752.13
2018-04-06T08:21:47.508Z,98761.00
2018-04-06T08:24:15.072Z,98759.20
2018-04-06T08:26:42.834Z,98762.53
2018-04-06T08:29:10.552Z,98760.54
2018-04-06T08:31:38.119Z,98760.97
2018-04-06T08:34:05.889Z,98769.67
2018-04-06T08:36:33.707Z,98780.34
2018-04-06T08:39:01.274Z,98787.44
2018-04-06T08:41:29.022Z,98783.64
2018-04-06T08:43:56.739Z,98778.08
2018-04-06T08:46:24.455Z,98781.47
2018-04-06T08:48:52.051Z,98780.23
2018-04-06T08:51:19.642Z,98780.45
2018-04-06T08:53:47.315Z,98779.61
2018-04-06T08:56:14.862Z,98777.64
2018-04-06T08:58:42.446Z,98781.53
2018-04-06T09:01:10.022Z,98774.42
2018-04-06T09:03:37.696Z,98772.61
2018-04-06T09:06:05.314Z,98769.88
2018-04-06T09:08:32.877Z,98778.62
2018-04-06T09:11:00.550Z,98779.23
2018-04-06T09:13:28.980Z,98778.31
2018-04-06T09:15:56.569Z,98772.41
2018-04-06T09:18:24.298Z,98767.14
2018-04-06T09:20:52.014Z,98773.65
2018-04-06T09:23:19.644Z,98766.33
2018-04-06T09:25:47.197Z,98770.45
2018-04-06T09:28:14.988Z,98762.92
2018-04-06T09:30:42.543Z,98762.11
2018-04-06T09:33:10.115Z,98763.42
2018-04-06T09:35:37.682Z,98766.87
2018-04-06T09:38:05.239Z,98765.73
2018-04-06T09:40:32.815Z,98771.41
2018-04-06T09:43:00.601Z,98765.95
2018-04-06T09:45:28.414Z,98770.16
2018-04-06T09:47:56.016Z,98765.50
2018-04-06T09:50:23.698Z,98764.94
2018-04-06T09:52:51.265Z,98757.60
2018-04-06T09:55:18.803Z,98755.09
2018-04-06T09:57:46.604Z,98757.25
2018-04-06T10:00:32.973Z,98760.70
2018-04-06T10:03:03.021Z,98757.02
2018-04-06T10:05:30.584Z,98755.14
2018-04-06T10:07:58.170Z,98756.51
2018-04-06T10:10:25.972Z,98758.02
2018-04-06T10:12:53.597Z,98758.73
2018-04-06T10:15:21.161Z,98764.55
2018-04-06T10:17:48.783Z,98759.25
2018-04-06T10:20:16.406Z,98756.75
2018-04-06T10:22:44.159Z,98757.58
2018-04-06T10:25:11.977Z,98764.16
2018-04-06T10:27:39.796Z,98758.50
2018-04-06T10:30:07.514Z,98763.66
2018-04-06T10:32:35.067Z,98760.42
2018-04-06T10:35:02.631Z,98767.22
2018-04-06T10:37:30.346Z,98762.89
2018-04-06T10:39:57.901Z,98760.53
2018-04-06T10:42:25.468Z,98763.95
2018-04-06T10:44:53.045Z,98762.66
2018-04-06T10:47:20.606Z,98763.34
2018-04-06T10:49:48.173Z,98763.05
2018-04-06T10:52:15.746Z,98767.41
2018-04-06T10:54:43.358Z,98766.66
2018-04-06T10:57:10.913Z,98771.52
2018-04-06T10:59:38.571Z,98762.27
2018-04-06T11:02:06.145Z,98766.23
2018-04-06T11:04:33.966Z,98760.86
2018-04-06T11:07:01.534Z,98764.28
2018-04-06T11:09:29.301Z,98763.66
2018-04-06T11:11:56.914Z,98765.55
2018-04-06T11:14:24.485Z,98764.27
2018-04-06T11:16:52.043Z,98769.91
2018-04-06T11:19:19.614Z,98762.70
2018-04-06T11:21:47.270Z,98766.16
2018-04-06T11:24:14.849Z,98767.83
2018-04-06T11:26:42.627Z,98770.05
2018-04-06T11:29:10.258Z,98766.00
2018-04-06T11:31:37.816Z,98762.88
2018-04-06T11:34:05.681Z,98763.66
2018-04-06T11:36:33.266Z,98767.63
2018-04-06T11:39:00.908Z,98764.76
2018-04-06T11:41:28.536Z,98771.12
2018-04-06T11:43:56.148Z,98768.55
2018-04-06T11:46:23.970Z,98777.22
2018-04-06T11:48:51.525Z,98778.76
2018-04-06T11:51:19.311Z,98776.48
2018-04-06T11:53:46.917Z,98777.94
2018-04-06T11:56:14.471Z,98772.17
2018-04-06T11:58:42.098Z,98776.92
2018-04-06T12:01:09.791Z,98781.11
2018-04-06T12:03:37.354Z,98773.90
2018-04-06T12:06:05.118Z,98772.17
2018-04-06T12:08:32.935Z,98766.92
2018-04-06T12:11:00.694Z,98771.59
2018-04-06T12:13:28.266Z,98773.90
2018-04-06T12:15:56.092Z,98770.05
2018-04-06T12:18:23.682Z,98778.73
2018-04-06T12:20:51.238Z,98782.73
2018-04-06T12:23:18.822Z,98791.91
2018-04-06T12:25:46.387Z,98786.96
2018-04-06T12:28:14.034Z,98779.50
2018-04-06T12:30:41.657Z,98786.58
2018-04-06T12:33:09.209Z,98790.86
2018-04-06T12:35:36.933Z,98793.96
2018-04-06T12:38:04.533Z,98792.06
2018-04-06T12:40:32.111Z,98795.11
2018-04-06T12:42:59.804Z,98796.15
2018-04-06T12:45:27.403Z,98811.30
2018-04-06T12:47:54.985Z,98816.51
2018-04-06T12:50:22.711Z,98816.70
2018-04-06T12:52:50.279Z,98830.43
2018-04-06T12:55:17.848Z,98827.44
2018-04-06T12:57:45.433Z,98828.84
2018-04-06T13:00:13.007Z,98816.64
2018-04-06T13:02:40.613Z,98815.98
2018-04-06T13:05:08.178Z,98823.52
2018-04-06T13:07:35.967Z,98822.20
2018-04-06T13:10:03.671Z,98828.06
2018-04-06T13:12:31.244Z,98821.26
2018-04-06T13:14:58.934Z,98834.41
2018-04-06T13:17:26.658Z,98834.91
2018-04-06T13:19:54.234Z,98831.00
2018-04-06T13:22:21.806Z,98835.41
2018-04-06T13:24:49.592Z,98827.30
2018-04-06T13:27:17.166Z,98834.31
2018-04-06T13:29:44.750Z,98820.59
2018-04-06T13:32:12.399Z,98820.89
2018-04-06T13:34:39.973Z,98818.34
2018-04-06T13:37:07.783Z,98816.39
2018-04-06T13:39:35.600Z,98818.70
2018-04-06T13:42:03.159Z,98822.13
2018-04-06T13:44:30.770Z,98840.16
2018-04-06T13:46:58.330Z,98839.58
2018-04-06T13:49:26.175Z,98846.02
2018-04-06T13:51:53.991Z,98848.85
2018-04-06T13:54:22.503Z,98856.78
2018-04-06T13:56:50.082Z,98860.85
2018-04-06T13:59:18.351Z,98866.91
2018-04-06T14:01:47.054Z,98865.08
2018-04-06T14:04:20.669Z,98868.61
2018-04-06T14:06:48.307Z,98865.20
2018-04-06T14:09:17.471Z,98866.75
2018-04-06T14:11:45.037Z,98860.73
2018-04-06T14:14:12.851Z,98865.20
2018-04-06T14:16:40.565Z,98868.84
2018-04-06T14:19:08.133Z,98863.43
2018-04-06T14:21:35.694Z,98864.48
2018-04-06T14:24:03.306Z,98852.52
2018-04-06T14:26:31.291Z,98851.55
2018-04-06T14:28:59.270Z,98841.34
2018-04-06T14:31:26.834Z,98850.25
2018-04-06T14:33:54.828Z,98859.15
2018-04-06T14:36:23.250Z,98857.23
2018-04-06T14:38:50.886Z,98859.84
2018-04-06T14:41:20.591Z,98862.84
2018-04-06T14:43:48.410Z,98864.52
2018-04-06T14:46:15.969Z,98859.10
2018-04-06T14:48:43.547Z,98870.12
2018-04-06T14:51:11.229Z,98865.03
2018-04-06T14:53:38.793Z,98859.80
2018-04-06T14:56:06.362Z,98855.81
2018-04-06T14:58:34.107Z,98855.33
2018-04-06T15:01:01.666Z,98849.17
2018-04-06T15:03:29.234Z,98848.47
2018-04-06T15:05:56.979Z,98858.73
2018-04-06T15:08:24.543Z,98861.78
2018-04-06T15:10:52.315Z,98859.44
2018-04-06T15:13:20.134Z,98863.97
2018-04-06T15:15:47.952Z,98860.05
2018-04-06T15:18:15.501Z,98860.75
2018-04-06T15:20:43.066Z,98860.58
2018-04-06T15:23:10.644Z,98863.31
2018-04-06T15:25:38.242Z,98863.55
2018-04-06T15:28:06.031Z,98867.38
2018-04-06T15:30:33.721Z,98862.30
2018-04-06T15:33:01.337Z,98874.20
2018-04-06T15:35:28.936Z,98873.54
2018-04-06T15:37:56.716Z,98869.98
2018-04-06T15:40:24.533Z,98872.23
2018-04-06T15:42:52.091Z,98869.23
2018-04-06T15:45:19.700Z,98877.27
2018-04-06T15:47:47.265Z,98882.55
2018-04-06T15:50:15.106Z,98882.86
2018-04-06T15:52:42.666Z,98895.95
2018-04-06T15:55:10.442Z,98905.52
2018-04-06T15:57:38.006Z,98907.59
2018-04-06T16:00:05.614Z,98910.56
2018-04-06T16:02:33.228Z,98917.81
2018-04-06T16:05:00.923Z,98918.27
2018-04-06T16:07:28.570Z,98920.40
2018-04-06T16:09:56.157Z,98926.72
2018-04-06T16:12:23.968Z,98927.23
2018-04-06T16:14:51.555Z,98924.88
2018-04-06T16:17:19.286Z,98923.22
2018-04-06T16:19:46.896Z,98930.48
2018-04-06T16:22:14.644Z,98925.87
2018-04-06T16:24:42.351Z,98936.53
2018-04-06T16:27:09.916Z,98943.72
2018-04-06T16:29:37.514Z,98944.20
2018-04-06T16:32:05.094Z,98952.36
2018-04-06T16:34:32.698Z,98962.51
2018-04-06T16:37:00.270Z,98954.59
2018-04-06T16:39:27.827Z,98955.04
2018-04-06T16:41:55.562Z,98956.82
2018-04-06T16:44:23.140Z,98962.97
2018-04-06T16:46:50.815Z,98964.94
2018-04-06T16:49:18.374Z,98967.90
2018-04-06T16:51:45.930Z,98971.47
2018-04-06T16:54:13.773Z,98982.55
2018-04-06T16:56:41.493Z,98983.94
2018-04-06T16:59:09.310Z,98981.23
2018-04-06T17:01:36.882Z,98987.13
2018-04-06T17:04:04.450Z,98993.44
2018-04-06T17:06:32.265Z,98998.17
2018-04-06T17:09:00.083Z,99000.48
2018-04-06T17:11:27.660Z,99003.52
2018-04-06T17:13:55.204Z,99013.33
2018-04-06T17:16:22.903Z,99010.31
2018-04-06T17:18:50.649Z,99018.50
2018-04-06T17:21:18.219Z,99032.42
2018-04-06T17:23:46.037Z,99040.11
2018-04-06T17:26:13.618Z,99038.48
2018-04-06T17:28:41.241Z,99037.88
2018-04-06T17:31:08.806Z,99042.63
2018-04-06T17:33:36.374Z,99045.51
2018-04-06T17:36:03.972Z,99049.36
2018-04-06T17:38:31.535Z,99055.91
2018-04-06T17:40:59.158Z,99064.06
2018-04-06T17:43:26.729Z,99060.80
2018-04-06T17:45:54.296Z,99063.75
2018-04-06T17:48:21.982Z,99071.19
2018-04-06T17:50:49.579Z,99085.91
2018-04-06T17:53:17.164Z,99078.57
2018-04-06T17:55:44.924Z,99082.98
2018-04-06T17:58:12.495Z,99088.13
2018-04-06T18:00:40.070Z,99096.72
2018-04-06T18:03:07.881Z,99099.17
2018-04-06T18:05:35.454Z,99103.10
2018-04-06T18:08:03.028Z,99097.13
2018-04-06T18:10:30.833Z,99113.33
2018-04-06T18:12:58.401Z,99113.58
2018-04-06T18:15:25.976Z,99113.23
2018-04-06T18:17:53.786Z,99112.31
2018-04-06T18:20:21.505Z,99119.69
2018-04-06T18:22:49.082Z,99126.77
2018-04-06T18:25:16.803Z,99127.61
2018-04-06T18:27:44.558Z,99132.69
2018-04-06T18:30:12.124Z,99130.38
2018-04-06T18:32:39.701Z,99135.48
2018-04-06T18:35:07.282Z,99132.35
2018-04-06T18:37:34.854Z,99137.08
2018-04-06T18:40:02.430Z,99135.64
2018-04-06T18:42:29.994Z,99128.36
2018-04-06T18:44:57.612Z,99141.09
2018-04-06T18:47:25.404Z,99136.17
2018-04-06T18:49:53.222Z,99140.06
2018-04-06T18:52:21.040Z,99142.42
2018-04-06T18:54:48.758Z,99142.48
2018-04-06T18:57:16.373Z,99146.58
2018-04-06T18:59:43.970Z,99150.51
2018-04-06T19:02:11.807Z,99147.98
2018-04-06T19:04:39.384Z,99147.09
2018-04-06T19:07:06.958Z,99154.94
2018-04-06T19:09:34.767Z,99147.94
2018-04-06T19:12:02.334Z,99160.23
2018-04-06T19:14:30.103Z,99164.36
2018-04-06T19:16:57.708Z,99162.16
2018-04-06T19:19:25.363Z,99166.97
2018-04-06T19:21:53.159Z,99167.12
2018-04-06T19:24:20.765Z,99173.62
2018-04-06T19:26:48.594Z,99173.78
2018-04-06T19:29:16.180Z,99172.38
2018-04-06T19:31:43.931Z,99178.02
2018-04-06T19:34:11.490Z,99181.05
2018-04-06T19:36:39.157Z,99189.12
2018-04-06T19:39:06.786Z,99195.23
2018-04-06T19:41:34.350Z,99198.53
2018-04-06T19:44:01.954Z,99191.72
2018-04-06T19:46:29.738Z,99177.16
2018-04-06T19:48:57.342Z,99191.14
2018-04-06T19:51:24.899Z,99197.84
2018-04-06T19:53:52.694Z,99194.23
2018-04-06T19:56:20.262Z,99189.47
2018-04-06T19:58:48.030Z,99189.80
2018-04-06T20:01:15.606Z,99192.09
2018-04-06T20:03:43.178Z,99189.80
2018-04-06T20:08:44.498Z,99199.70
2018-04-06T20:11:12.319Z,99199.63
2018-04-06T20:13:40.059Z,99206.95
2018-04-06T20:16:07.644Z,99212.27
2018-04-06T20:18:35.236Z,99214.02
2018-04-06T20:21:02.811Z,99213.92
2018-04-06T20:23:30.430Z,99213.72
2018-04-06T20:25:57.990Z,99218.15
2018-04-06T20:28:25.766Z,99222.90
2018-04-06T20:30:53.342Z,99231.25
2018-04-06T20:33:21.066Z,99226.67
2018-04-06T20:35:48.920Z,99234.91
2018-04-06T20:38:16.485Z,99228.58
2018-04-06T20:40:44.046Z,99236.20
2018-04-06T20:43:11.775Z,99238.02
2018-04-06T20:45:40.056Z,99231.55
2018-04-06T20:48:07.914Z,99236.34
2018-04-06T20:50:35.633Z,99229.25
2018-04-06T20:53:03.355Z,99239.37
2018-04-06T20:55:31.169Z,99233.05
2018-04-06T20:57:58.988Z,99237.50
2018-04-06T21:00:26.606Z,99238.87
2018-04-06T21:02:54.205Z,99243.03
2018-04-06T21:05:21.770Z,99240.27
2018-04-06T21:07:49.559Z,99244.97
2018-04-06T21:10:17.136Z,99249.20
2018-04-06T21:12:44.788Z,99244.03
2018-04-06T21:15:12.360Z,99248.58
2018-04-06T21:17:39.926Z,99252.63
2018-04-06T21:20:07.674Z,99247.73
2018-04-06T21:22:35.468Z,99252.66
2018-04-06T21:25:03.094Z,99254.14
2018-04-06T21:27:30.656Z,99256.72
2018-04-06T21:29:58.242Z,99252.06
2018-04-06T21:32:25.847Z,99251.41
2018-04-06T21:34:53.657Z,99251.06
2018-04-06T21:37:21.288Z,99256.38
2018-04-06T21:39:49.009Z,99252.66
2018-04-06T21:42:16.571Z,99260.17
2018-04-06T21:44:44.182Z,99264.61
2018-04-06T21:47:11.774Z,99262.92
2018-04-06T21:49:39.404Z,99260.86
2018-04-06T21:52:07.183Z,99260.12
2018-04-06T21:54:34.742Z,99265.77
2018-04-06T21:57:02.419Z,99269.18
2018-04-06T21:59:30.018Z,99277.89
2018-04-06T22:01:57.856Z,99275.13
2018-04-06T22:04:25.409Z,99283.11
2018-04-06T22:06:53.169Z,99279.10
2018-04-06T22:09:20.826Z,99282.73
2018-04-06T22:11:48.630Z,99285.78
2018-04-06T22:14:16.205Z,99287.89
2018-04-06T22:16:43.766Z,99288.66
2018-04-06T22:19:11.482Z,99285.16
2018-04-06T22:21:39.301Z,99287.50
2018-04-06T22:24:06.869Z,99286.63
2018-04-06T22:26:34.446Z,99287.01
2018-04-06T22:29:02.257Z,99285.48
2018-04-06T22:31:29.864Z,99285.55
2018-04-06T22:33:57.594Z,99285.08
2018-04-06T22:36:25.200Z,99285.84
2018-04-06T22:38:52.773Z,99287.61
2018-04-06T22:41:20.330Z,99296.38
2018-04-06T22:43:47.898Z,99290.38
2018-04-06T22:46:15.466Z,99301.81
2018-04-06T22:48:43.030Z,99297.30
2018-04-06T22:51:10.601Z,99298.88
2018-04-06T22:53:38.162Z,99297.42
2018-04-06T22:56:05.725Z,99301.20
2018-04-06T22:58:33.294Z,99307.91
2018-04-06T23:01:00.853Z,99307.31
2018-04-06T23:03:28.410Z,99305.92
2018-04-06T23:05:55.978Z,99303.80
2018-04-06T23:08:23.539Z,99299.79
2018-04-06T23:10:51.120Z,99297.94
2018-04-06T23:13:18.876Z,99293.91
2018-04-06T23:15:46.694Z,99295.30
2018-04-06T23:18:14.513Z,99305.51
2018-04-06T23:20:42.237Z,99297.69
2018-04-06T23:23:09.841Z,99295.95
2018-04-06T23:25:37.426Z,99301.66
2018-04-06T23:28:05.185Z,99300.16
2018-04-06T23:30:32.763Z,99300.34
2018-04-06T23:33:00.330Z,99301.59
2018-04-06T23:35:27.906Z,99306.83
2018-04-06T23:37:55.632Z,99310.75
2018-04-06T23:40:23.195Z,99307.18
2018-04-06T23:42:50.766Z,99309.79
2018-04-06T23:45:18.511Z,99308.02
2018-04-06T23:47:46.074Z,99308.07
2018-04-06T23:50:13.848Z,99308.78
2018-04-06T23:52:41.390Z,99313.30
2018-04-06T23:55:09.078Z,99309.95
2018-04-06T23:57:36.638Z,99313.58
